createdAt,value
2017-01-11T00:00:30.955Z,94.46
2017-01-11T00:01:53.437Z,94.93
2017-01-11T00:03:16.299Z,94.74
2017-01-11T00:04:38.497Z,94.74
2017-01-11T00:06:01.357Z,94.65
2017-01-11T00:07:23.949Z,94.65
2017-01-11T00:08:46.799Z,94.84
2017-01-11T00:10:09.802Z,94.84
2017-01-11T00:11:32.276Z,94.84
2017-01-11T00:12:55.191Z,94.74
2017-01-11T00:14:18.063Z,94.27
2017-01-11T00:15:40.196Z,94.46
2017-01-11T00:17:03.064Z,94.65
2017-01-11T00:18:25.120Z,94.18
2017-01-11T00:19:48.121Z,94.37
2017-01-11T00:21:11.027Z,94.46
2017-01-11T00:22:33.541Z,94.93
2017-01-11T00:23:55.982Z,94.37
2017-01-11T00:25:18.445Z,94.18
2017-01-11T00:26:41.307Z,94.65
2017-01-11T00:28:03.818Z,94.84
2017-01-11T00:29:26.698Z,94.65
2017-01-11T00:30:49.561Z,94.56
2017-01-11T00:32:12.091Z,94.84
2017-01-11T00:33:34.618Z,94.65
2017-01-11T00:34:56.693Z,94.65
2017-01-11T00:36:19.654Z,94.65
2017-01-11T00:37:41.714Z,94.74
2017-01-11T00:39:04.423Z,94.74
2017-01-11T00:40:26.476Z,94.56
2017-01-11T00:41:48.942Z,94.84
2017-01-11T00:43:11.380Z,94.74
2017-01-11T00:44:34.286Z,94.84
2017-01-11T00:45:55.932Z,94.56
2017-01-11T00:47:18.494Z,94.84
2017-01-11T00:48:40.952Z,94.37
2017-01-11T00:50:03.923Z,94.65
2017-01-11T00:51:25.680Z,94.27
2017-01-11T00:52:47.850Z,94.65
2017-01-11T00:54:10.334Z,94.65
2017-01-11T00:55:31.997Z,94.84
2017-01-11T00:56:54.101Z,94.74
2017-01-11T00:58:15.374Z,94.65
2017-01-11T00:59:37.448Z,94.37
2017-01-11T01:00:59.924Z,94.93
2017-01-11T01:02:22.766Z,94.37
2017-01-11T01:03:44.857Z,94.37
2017-01-11T01:05:07.025Z,94.46
2017-01-11T01:06:29.494Z,94.74
2017-01-11T01:07:51.993Z,94.37
2017-01-11T01:09:14.451Z,94.27
2017-01-11T01:10:36.119Z,94.27
2017-01-11T01:11:59.075Z,94.37
2017-01-11T01:13:20.769Z,94.27
2017-01-11T01:14:43.696Z,94.46
2017-01-11T01:16:05.770Z,94.93
2017-01-11T01:17:28.321Z,94.56
2017-01-11T01:18:50.784Z,94.27
2017-01-11T01:20:13.297Z,94.46
2017-01-11T01:21:35.073Z,94.32
2017-01-11T01:22:57.545Z,94.27
2017-01-11T01:24:20.128Z,94.27
2017-01-11T01:25:42.968Z,94.27
2017-01-11T01:27:05.584Z,94.37
2017-01-11T01:28:28.188Z,94.27
2017-01-11T01:29:50.658Z,94.84
2017-01-11T01:31:13.543Z,94.37
2017-01-11T01:32:35.255Z,94.37
2017-01-11T01:33:57.897Z,94.27
2017-01-11T01:35:20.749Z,94.37
2017-01-11T01:36:43.187Z,94.32
2017-01-11T01:38:05.227Z,94.56
2017-01-11T01:39:27.744Z,94.7
2017-01-11T01:40:50.377Z,94.13
2017-01-11T01:42:12.043Z,94.42
2017-01-11T01:43:34.921Z,94.32
2017-01-11T01:44:57.390Z,94.7
2017-01-11T01:46:20.235Z,93.94
2017-01-11T01:47:42.708Z,94.42
2017-01-11T01:49:05.181Z,94.6
2017-01-11T01:50:27.625Z,93.99
2017-01-11T01:51:50.571Z,93.84
2017-01-11T01:53:13.445Z,93.42
2017-01-11T01:54:36.096Z,93.84
2017-01-11T01:55:58.962Z,94.51
2017-01-11T01:57:21.067Z,94.46
2017-01-11T01:58:43.576Z,94.08
2017-01-11T02:00:06.418Z,94.27
2017-01-11T02:01:29.271Z,94.27
2017-01-11T02:02:51.327Z,94.18
2017-01-11T02:04:14.245Z,93.89
2017-01-11T02:05:35.490Z,94.13
2017-01-11T02:06:58.054Z,94.13
2017-01-11T02:08:20.172Z,94.23
2017-01-11T02:09:42.227Z,94.27
2017-01-11T02:11:04.300Z,94.23
2017-01-11T02:12:26.380Z,94.32
2017-01-11T02:13:48.103Z,94.18
2017-01-11T02:15:11.040Z,94.51
2017-01-11T02:16:33.494Z,93.94
2017-01-11T02:17:55.192Z,94.04
2017-01-11T02:19:17.708Z,93.65
2017-01-11T02:20:40.265Z,93.65
2017-01-11T02:22:03.130Z,93.65
2017-01-11T02:23:25.322Z,94.6
2017-01-11T02:24:47.890Z,93.42
2017-01-11T02:26:10.332Z,93.65
2017-01-11T02:27:33.191Z,93.7
2017-01-11T02:28:56.212Z,94.56
2017-01-11T02:30:18.731Z,94.6
2017-01-11T02:31:41.271Z,94.51
2017-01-11T02:33:03.356Z,94.42
2017-01-11T02:34:25.826Z,94.27
2017-01-11T02:35:48.278Z,94.27
2017-01-11T02:37:10.349Z,94.23
2017-01-11T02:38:32.810Z,94.18
2017-01-11T02:39:55.328Z,94.08
2017-01-11T02:41:17.850Z,93.99
2017-01-11T02:42:40.723Z,94.46
2017-01-11T02:44:02.788Z,94.46
2017-01-11T02:45:24.854Z,94.56
2017-01-11T02:46:47.302Z,94.32
2017-01-11T02:48:09.375Z,94.46
2017-01-11T02:49:32.208Z,94.56
2017-01-11T02:50:54.655Z,94.56
2017-01-11T02:52:17.102Z,94.08
2017-01-11T02:53:39.166Z,93.99
2017-01-11T02:55:01.636Z,94.18
2017-01-11T02:56:24.495Z,94.65
2017-01-11T02:57:46.561Z,94.18
2017-01-11T02:59:08.627Z,94.08
2017-01-11T03:00:31.547Z,94.37
2017-01-11T03:01:54.053Z,94.46
2017-01-11T03:03:16.916Z,94.18
2017-01-11T03:04:38.584Z,94.65
2017-01-11T03:06:01.031Z,94.18
2017-01-11T03:07:23.920Z,94.08
2017-01-11T03:08:46.508Z,93.99
2017-01-11T03:10:08.578Z,94.08
2017-01-11T03:11:30.268Z,94.27
2017-01-11T03:12:52.749Z,93.89
2017-01-11T03:14:14.808Z,94.27
2017-01-11T03:15:37.315Z,93.99
2017-01-11T03:16:59.846Z,94.08
2017-01-11T03:18:21.947Z,94.37
2017-01-11T03:19:44.431Z,94.37
2017-01-11T03:21:06.479Z,94.27
2017-01-11T03:22:28.948Z,94.18
2017-01-11T03:23:51.857Z,94.27
2017-01-11T03:25:13.901Z,94.37
2017-01-11T03:26:36.752Z,94.18
2017-01-11T03:27:59.322Z,94.65
2017-01-11T03:29:21.401Z,94.18
2017-01-11T03:30:43.967Z,94.27
2017-01-11T03:32:06.013Z,94.27
2017-01-11T03:33:28.851Z,94.18
2017-01-11T03:34:51.325Z,94.08
2017-01-11T03:36:13.789Z,94.37
2017-01-11T03:37:36.683Z,94.18
2017-01-11T03:38:59.153Z,94.46
2017-01-11T03:40:21.668Z,94.18
2017-01-11T03:41:44.183Z,94.65
2017-01-11T03:43:07.051Z,94.65
2017-01-11T03:44:29.131Z,94.46
2017-01-11T03:45:51.172Z,94.18
2017-01-11T03:47:13.227Z,94.37
2017-01-11T03:48:35.411Z,94.37
2017-01-11T03:49:57.541Z,94.18
2017-01-11T03:51:20.471Z,93.99
2017-01-11T03:52:42.954Z,94.46
2017-01-11T03:54:05.114Z,93.99
2017-01-11T03:55:27.560Z,94.51
2017-01-11T03:56:50.515Z,93.65
2017-01-11T03:58:12.633Z,93.65
2017-01-11T03:59:35.643Z,93.65
2017-01-11T04:00:58.493Z,94.56
2017-01-11T04:02:20.945Z,94.6
2017-01-11T04:03:43.175Z,93.56
2017-01-11T04:05:05.385Z,93.84
2017-01-11T04:06:27.856Z,94.42
2017-01-11T04:07:49.955Z,94.51
2017-01-11T04:09:12.465Z,94.42
2017-01-11T04:10:35.008Z,94.51
2017-01-11T04:11:57.544Z,94.46
2017-01-11T04:13:18.819Z,94.42
2017-01-11T04:14:40.875Z,94.23
2017-01-11T04:16:04.015Z,94.51
2017-01-11T04:17:26.068Z,94.51
2017-01-11T04:18:47.790Z,94.51
2017-01-11T04:20:10.313Z,94.6
2017-01-11T04:21:32.886Z,94.6
2017-01-11T04:22:55.312Z,94.6
2017-01-11T04:24:16.614Z,94.6
2017-01-11T04:25:39.109Z,94.32
2017-01-11T04:27:01.608Z,94.6
2017-01-11T04:28:24.119Z,94.23
2017-01-11T04:29:46.439Z,94.23
2017-01-11T04:31:08.978Z,94.32
2017-01-11T04:32:31.837Z,94.04
2017-01-11T04:33:54.818Z,94.42
2017-01-11T04:35:16.903Z,94.32
2017-01-11T04:36:39.389Z,94.51
2017-01-11T04:38:01.446Z,94.32
2017-01-11T04:39:23.525Z,94.6
2017-01-11T04:40:45.613Z,94.42
2017-01-11T04:42:07.657Z,94.6
2017-01-11T04:43:29.885Z,94.6
2017-01-11T04:44:52.357Z,94.42
2017-01-11T04:46:14.808Z,94.51
2017-01-11T04:47:36.522Z,94.13
2017-01-11T04:48:58.982Z,94.23
2017-01-11T04:50:21.446Z,94.23
2017-01-11T04:51:44.302Z,94.6
2017-01-11T04:53:06.775Z,94.04
2017-01-11T04:54:28.854Z,93.94
2017-01-11T04:55:50.928Z,94.6
2017-01-11T04:57:13.410Z,94.32
2017-01-11T04:58:35.588Z,94.32
2017-01-11T04:59:58.150Z,94.51
2017-01-11T05:01:21.040Z,94.23
2017-01-11T05:02:43.969Z,94.32
2017-01-11T05:04:06.128Z,94.51
2017-01-11T05:05:28.609Z,94.6
2017-01-11T05:06:51.136Z,94.42
2017-01-11T05:08:13.219Z,93.84
2017-01-11T05:09:35.777Z,93.84
2017-01-11T05:10:57.834Z,93.94
2017-01-11T05:12:20.040Z,93.65
2017-01-11T05:13:42.118Z,94.6
2017-01-11T05:15:04.571Z,94.51
2017-01-11T05:16:27.117Z,94.6
2017-01-11T05:17:49.569Z,93.94
2017-01-11T05:19:12.187Z,93.84
2017-01-11T05:20:34.237Z,93.84
2017-01-11T05:21:56.443Z,93.94
2017-01-11T05:23:18.918Z,94.04
2017-01-11T05:24:40.974Z,94.04
2017-01-11T05:26:03.145Z,93.46
2017-01-11T05:27:25.226Z,93.65
2017-01-11T05:28:47.700Z,93.75
2017-01-11T05:30:10.179Z,93.65
2017-01-11T05:31:32.649Z,93.65
2017-01-11T05:32:55.110Z,93.84
2017-01-11T05:34:17.618Z,94.04
2017-01-11T05:35:39.768Z,94.13
2017-01-11T05:37:02.641Z,94.04
2017-01-11T05:38:25.490Z,93.65
2017-01-11T05:39:48.332Z,93.75
2017-01-11T05:41:11.337Z,93.84
2017-01-11T05:42:34.198Z,94.04
2017-01-11T05:43:57.107Z,94.13
2017-01-11T05:45:18.777Z,94.13
2017-01-11T05:46:41.649Z,94.04
2017-01-11T05:48:04.268Z,93.84
2017-01-11T05:49:26.318Z,94.04
2017-01-11T05:50:49.242Z,93.75
2017-01-11T05:52:12.260Z,93.65
2017-01-11T05:53:34.018Z,93.94
2017-01-11T05:54:56.478Z,93.84
2017-01-11T05:56:18.959Z,93.56
2017-01-11T05:57:41.056Z,93.75
2017-01-11T05:59:03.682Z,94.13
2017-01-11T06:00:26.535Z,94.04
2017-01-11T06:01:49.437Z,93.94
2017-01-11T06:03:11.591Z,94.23
2017-01-11T06:04:34.440Z,93.46
2017-01-11T06:05:56.908Z,93.84
2017-01-11T06:07:19.087Z,93.56
2017-01-11T06:08:41.708Z,93.65
2017-01-11T06:10:04.277Z,93.75
2017-01-11T06:11:26.768Z,93.65
2017-01-11T06:12:49.237Z,93.75
2017-01-11T06:14:10.877Z,93.65
2017-01-11T06:15:32.932Z,93.94
2017-01-11T06:16:55.497Z,93.37
2017-01-11T06:18:18.086Z,93.27
2017-01-11T06:19:40.947Z,93.08
2017-01-11T06:21:03.416Z,93.37
2017-01-11T06:22:25.877Z,93.37
2017-01-11T06:23:48.766Z,93.27
2017-01-11T06:25:10.827Z,93.27
2017-01-11T06:26:33.806Z,93.37
2017-01-11T06:27:56.699Z,93.46
2017-01-11T06:29:19.734Z,92.99
2017-01-11T06:30:42.635Z,92.99
2017-01-11T06:32:05.097Z,93.37
2017-01-11T06:33:27.951Z,93.46
2017-01-11T06:34:50.434Z,93.18
2017-01-11T06:36:12.888Z,92.99
2017-01-11T06:37:35.366Z,93.27
2017-01-11T06:38:58.277Z,93.84
2017-01-11T06:40:20.723Z,93.84
2017-01-11T06:41:43.225Z,93.46
2017-01-11T06:43:05.312Z,93.75
2017-01-11T06:44:27.793Z,93.65
2017-01-11T06:45:50.775Z,93.65
2017-01-11T06:47:13.634Z,93.84
2017-01-11T06:48:36.302Z,93.46
2017-01-11T06:49:59.177Z,93.65
2017-01-11T06:51:21.225Z,93.65
2017-01-11T06:52:44.185Z,93.37
2017-01-11T06:54:07.063Z,93.56
2017-01-11T06:55:29.524Z,93.56
2017-01-11T06:56:52.103Z,93.75
2017-01-11T06:58:15.009Z,93.75
2017-01-11T06:59:37.575Z,93.75
2017-01-11T07:01:00.423Z,93.46
2017-01-11T07:02:22.909Z,93.84
2017-01-11T07:03:45.850Z,93.75
2017-01-11T07:05:08.337Z,93.75
2017-01-11T07:06:30.509Z,93.56
2017-01-11T07:07:52.569Z,93.46
2017-01-11T07:09:14.765Z,93.84
2017-01-11T07:10:37.226Z,93.37
2017-01-11T07:11:58.882Z,93.56
2017-01-11T07:13:33.890Z,93.65
2017-01-11T07:14:56.760Z,93.75
2017-01-11T07:16:18.853Z,93.84
2017-01-11T07:17:40.927Z,93.84
2017-01-11T07:19:03.378Z,93.84
2017-01-11T07:20:26.386Z,93.75
2017-01-11T07:21:49.245Z,93.75
2017-01-11T07:23:12.088Z,93.61
2017-01-11T07:24:34.939Z,93.84
2017-01-11T07:25:56.593Z,93.61
2017-01-11T07:27:19.481Z,93.65
2017-01-11T07:28:41.622Z,94.18
2017-01-11T07:30:03.675Z,93.51
2017-01-11T07:31:25.782Z,93.8
2017-01-11T07:32:48.638Z,93.13
2017-01-11T07:34:11.103Z,93.7
2017-01-11T07:35:33.632Z,93.51
2017-01-11T07:36:55.676Z,93.32
2017-01-11T07:38:17.832Z,92.76
2017-01-11T07:39:40.795Z,92.57
2017-01-11T07:41:03.263Z,93.04
2017-01-11T07:42:25.331Z,92.85
2017-01-11T07:43:47.531Z,92.85
2017-01-11T07:45:10.056Z,92.66
2017-01-11T07:46:32.929Z,92.76
2017-01-11T07:47:55.875Z,92.76
2017-01-11T07:49:18.753Z,92.09
2017-01-11T07:50:41.722Z,92.28
2017-01-11T07:52:04.274Z,92.47
2017-01-11T07:53:26.754Z,92.09
2017-01-11T07:54:49.313Z,92.28
2017-01-11T07:56:11.772Z,92.18
2017-01-11T07:57:34.353Z,92.38
2017-01-11T07:58:57.352Z,92.47
2017-01-11T08:00:20.278Z,92.18
2017-01-11T08:01:43.116Z,91.61
2017-01-11T08:03:05.583Z,92.09
2017-01-11T08:04:28.454Z,91.99
2017-01-11T08:05:50.534Z,92.38
2017-01-11T08:07:13.654Z,92.38
2017-01-11T08:08:36.594Z,92.38
2017-01-11T08:09:59.063Z,92.76
2017-01-11T08:11:21.913Z,92.85
2017-01-11T08:12:44.367Z,92.76
2017-01-11T08:14:06.873Z,93.23
2017-01-11T08:15:28.927Z,93.23
2017-01-11T08:16:51.425Z,93.51
2017-01-11T08:18:13.977Z,93.7
2017-01-11T08:19:36.441Z,93.99
2017-01-11T08:20:59.103Z,93.8
2017-01-11T08:22:20.753Z,93.61
2017-01-11T08:23:43.725Z,93.89
2017-01-11T08:25:06.576Z,94.08
2017-01-11T08:26:29.036Z,94.08
2017-01-11T08:27:51.164Z,94.18
2017-01-11T08:29:13.655Z,94.46
2017-01-11T08:30:36.123Z,94.46
2017-01-11T08:31:58.574Z,94.84
2017-01-11T08:33:21.430Z,94.27
2017-01-11T08:34:43.944Z,94.84
2017-01-11T08:36:06.435Z,94.56
2017-01-11T08:37:28.970Z,94.74
2017-01-11T08:38:51.414Z,94.84
2017-01-11T08:40:13.871Z,94.93
2017-01-11T08:41:36.353Z,95.12
2017-01-11T08:42:58.794Z,94.84
2017-01-11T08:44:21.249Z,94.46
2017-01-11T08:45:44.176Z,94.27
2017-01-11T08:47:06.630Z,94.37
2017-01-11T08:48:29.508Z,93.99
2017-01-11T08:49:51.981Z,93.89
2017-01-11T08:51:14.862Z,93.8
2017-01-11T08:52:36.925Z,94.18
2017-01-11T08:53:59.379Z,93.41
2017-01-11T08:55:21.029Z,93.7
2017-01-11T08:56:43.340Z,93.89
2017-01-11T08:58:06.177Z,93.61
2017-01-11T08:59:28.253Z,93.89
2017-01-11T09:00:50.773Z,93.51
2017-01-11T09:02:14.276Z,93.7
2017-01-11T09:03:36.397Z,93.89
2017-01-11T09:04:59.294Z,93.13
2017-01-11T09:06:21.848Z,93.41
2017-01-11T09:07:44.698Z,93.13
2017-01-11T09:09:07.587Z,92.94
2017-01-11T09:10:30.081Z,92.94
2017-01-11T09:11:52.935Z,93.7
2017-01-11T09:13:15.807Z,93.32
2017-01-11T09:14:38.421Z,93.32
2017-01-11T09:16:00.090Z,93.23
2017-01-11T09:17:23.032Z,93.41
2017-01-11T09:18:45.509Z,93.32
2017-01-11T09:20:08.179Z,93.32
2017-01-11T09:21:31.075Z,93.04
2017-01-11T09:22:53.973Z,93.41
2017-01-11T09:24:16.456Z,93.56
2017-01-11T09:25:39.335Z,93.08
2017-01-11T09:27:02.304Z,93.61
2017-01-11T09:28:24.775Z,93.51
2017-01-11T09:29:46.840Z,94.6
2017-01-11T09:31:09.876Z,94.56
2017-01-11T09:32:32.455Z,94.74
2017-01-11T09:33:54.949Z,95.98
2017-01-11T09:35:17.922Z,96.45
2017-01-11T09:36:40.805Z,96.45
2017-01-11T09:38:03.834Z,97.02
2017-01-11T09:39:26.478Z,96.92
2017-01-11T09:40:48.935Z,97.4
2017-01-11T09:42:11.401Z,97.5
2017-01-11T09:43:33.909Z,97.88
2017-01-11T09:44:56.365Z,97.5
2017-01-11T09:46:18.861Z,98.07
2017-01-11T09:47:40.977Z,97.78
2017-01-11T09:49:03.541Z,98.07
2017-01-11T09:50:26.073Z,98.16
2017-01-11T09:51:48.531Z,98.44
2017-01-11T09:53:11.051Z,99.01
2017-01-11T09:54:33.210Z,98.73
2017-01-11T09:55:56.095Z,98.25
2017-01-11T09:57:18.585Z,98.54
2017-01-11T09:58:41.495Z,98.92
2017-01-11T10:00:03.961Z,98.63
2017-01-11T10:01:26.558Z,98.73
2017-01-11T10:02:49.641Z,98.73
2017-01-11T10:04:12.288Z,98.82
2017-01-11T10:05:34.819Z,99.01
2017-01-11T10:06:57.305Z,98.92
2017-01-11T10:08:19.380Z,98.92
2017-01-11T10:09:42.246Z,99.01
2017-01-11T10:11:05.114Z,98.73
2017-01-11T10:12:27.197Z,98.82
2017-01-11T10:13:49.730Z,98.82
2017-01-11T10:15:11.794Z,98.63
2017-01-11T10:16:33.857Z,99.01
2017-01-11T10:17:56.734Z,98.82
2017-01-11T10:19:18.515Z,99.2
2017-01-11T10:20:40.583Z,99.39
2017-01-11T10:22:03.463Z,99.2
2017-01-11T10:23:26.351Z,99.39
2017-01-11T10:24:48.952Z,99.58
2017-01-11T10:26:11.028Z,99.49
2017-01-11T10:27:33.938Z,99.3
2017-01-11T10:28:56.780Z,99.39
2017-01-11T10:30:19.631Z,99.49
2017-01-11T10:31:42.119Z,99.3
2017-01-11T10:33:03.880Z,99.2
2017-01-11T10:34:25.942Z,99.44
2017-01-11T10:35:48.192Z,99.44
2017-01-11T10:37:10.711Z,98.87
2017-01-11T10:38:32.767Z,98.97
2017-01-11T10:39:54.880Z,98.68
2017-01-11T10:41:16.572Z,98.68
2017-01-11T10:42:38.650Z,98.87
2017-01-11T10:44:01.529Z,98.68
2017-01-11T10:45:24.054Z,99.06
2017-01-11T10:46:46.908Z,98.78
2017-01-11T10:48:09.383Z,98.78
2017-01-11T10:49:31.858Z,98.97
2017-01-11T10:50:53.996Z,99.26
2017-01-11T10:52:15.282Z,99.44
2017-01-11T10:53:36.970Z,99.44
2017-01-11T10:54:59.852Z,99.44
2017-01-11T10:56:21.926Z,99.26
2017-01-11T10:57:44.390Z,99.26
2017-01-11T10:59:07.217Z,99.35
2017-01-11T11:00:30.089Z,99.54
2017-01-11T11:01:52.952Z,99.73
2017-01-11T11:03:15.527Z,99.26
2017-01-11T11:04:38.070Z,98.78
2017-01-11T11:06:00.577Z,98.59
2017-01-11T11:07:21.895Z,98.3
2017-01-11T11:08:44.779Z,99.06
2017-01-11T11:10:06.840Z,98.11
2017-01-11T11:11:29.307Z,98.3
2017-01-11T11:12:51.811Z,97.92
2017-01-11T11:14:13.989Z,97.83
2017-01-11T11:15:35.363Z,98.3
2017-01-11T11:16:57.486Z,97.97
2017-01-11T11:18:19.526Z,98.59
2017-01-11T11:19:41.602Z,97.97
2017-01-11T11:21:04.078Z,98.78
2017-01-11T11:22:26.351Z,98.49
2017-01-11T11:23:48.481Z,98.4
2017-01-11T11:25:10.552Z,98.68
2017-01-11T11:27:04.909Z,98.73
2017-01-11T11:28:26.567Z,98.73
2017-01-11T11:29:48.378Z,98.54
2017-01-11T11:31:10.439Z,99.11
2017-01-11T11:32:33.348Z,99.02
2017-01-11T11:33:55.420Z,98.83
2017-01-11T11:35:17.982Z,98.83
2017-01-11T11:36:40.444Z,98.73
2017-01-11T11:38:02.948Z,98.83
2017-01-11T11:39:24.745Z,98.83
2017-01-11T11:40:47.642Z,98.64
2017-01-11T11:42:09.747Z,98.35
2017-01-11T11:43:31.803Z,98.07
2017-01-11T11:44:53.925Z,98.16
2017-01-11T11:46:16.430Z,98.07
2017-01-11T11:47:38.921Z,97.6
2017-01-11T11:49:01.417Z,97.88
2017-01-11T11:50:24.331Z,97.02
2017-01-11T11:51:46.814Z,97.69
2017-01-11T11:53:08.892Z,97.6
2017-01-11T11:54:30.569Z,97.6
2017-01-11T11:55:53.435Z,97.88
2017-01-11T11:57:15.105Z,97.97
2017-01-11T11:58:37.200Z,97.78
2017-01-11T11:59:59.282Z,98.26
2017-01-11T12:01:22.212Z,98.16
2017-01-11T12:02:45.164Z,98.83
2017-01-11T12:04:07.613Z,98.64
2017-01-11T12:05:29.780Z,98.64
2017-01-11T12:06:52.645Z,98.35
2017-01-11T12:08:14.717Z,98.64
2017-01-11T12:09:37.664Z,98.64
2017-01-11T12:11:00.145Z,98.92
2017-01-11T12:12:22.638Z,99.02
2017-01-11T12:13:44.741Z,97.69
2017-01-11T12:15:06.813Z,97.5
2017-01-11T12:16:29.276Z,96.08
2017-01-11T12:17:51.320Z,96.26
2017-01-11T12:19:14.287Z,96.88
2017-01-11T12:20:36.770Z,96.78
2017-01-11T12:21:59.245Z,97.83
2017-01-11T12:23:22.135Z,97.64
2017-01-11T12:24:44.614Z,98.02
2017-01-11T12:26:06.404Z,98.02
2017-01-11T12:27:29.276Z,97.83
2017-01-11T12:28:51.865Z,97.92
2017-01-11T12:30:14.328Z,97.92
2017-01-11T12:31:36.516Z,98.02
2017-01-11T12:32:59.377Z,97.74
2017-01-11T12:34:21.915Z,98.11
2017-01-11T12:35:43.985Z,98.02
2017-01-11T12:37:06.115Z,97.74
2017-01-11T12:38:28.179Z,97.83
2017-01-11T12:39:50.646Z,97.64
2017-01-11T12:41:13.568Z,97.64
2017-01-11T12:42:36.430Z,97.36
2017-01-11T12:43:58.886Z,96.93
2017-01-11T12:45:21.750Z,97.12
2017-01-11T12:46:44.301Z,96.74
2017-01-11T12:48:06.797Z,96.55
2017-01-11T12:49:29.730Z,95.41
2017-01-11T12:50:51.874Z,95.51
2017-01-11T12:52:14.346Z,95.79
2017-01-11T12:53:36.465Z,95.6
2017-01-11T12:54:58.526Z,95.6
2017-01-11T12:56:21.011Z,96.36
2017-01-11T12:57:43.636Z,96.08
2017-01-11T12:59:05.316Z,96.17
2017-01-11T13:00:27.056Z,95.89
2017-01-11T13:01:49.769Z,95.41
2017-01-11T13:03:12.700Z,95.98
2017-01-11T13:04:34.360Z,95.6
2017-01-11T13:05:56.046Z,93.6
2017-01-11T13:07:18.992Z,94.08
2017-01-11T13:08:41.072Z,93.8
2017-01-11T13:10:03.953Z,94.56
2017-01-11T13:11:26.831Z,94.74
2017-01-11T13:12:48.947Z,94.08
2017-01-11T13:14:11.937Z,93.6
2017-01-11T13:15:34.809Z,94.08
2017-01-11T13:16:56.881Z,93.89
2017-01-11T13:18:19.419Z,92.94
2017-01-11T13:19:42.400Z,93.6
2017-01-11T13:21:04.528Z,93.04
2017-01-11T13:22:27.495Z,93.89
2017-01-11T13:23:49.582Z,93.6
2017-01-11T13:25:12.576Z,93.8
2017-01-11T13:26:35.036Z,93.89
2017-01-11T13:27:57.524Z,94.18
2017-01-11T13:29:19.576Z,93.99
2017-01-11T13:30:41.867Z,93.89
2017-01-11T13:32:04.389Z,93.99
2017-01-11T13:33:26.597Z,93.89
2017-01-11T13:34:49.526Z,93.41
2017-01-11T13:36:12.417Z,93.51
2017-01-11T13:37:35.033Z,93.32
2017-01-11T13:38:57.905Z,93.04
2017-01-11T13:40:20.497Z,93.41
2017-01-11T13:41:42.625Z,92.66
2017-01-11T13:43:04.318Z,93.6
2017-01-11T13:44:26.416Z,93.23
2017-01-11T13:45:49.278Z,93.51
2017-01-11T13:47:11.813Z,93.41
2017-01-11T13:48:33.916Z,93.51
2017-01-11T13:49:56.798Z,93.41
2017-01-11T13:51:19.306Z,93.6
2017-01-11T13:52:41.470Z,93.04
2017-01-11T13:54:03.546Z,93.13
2017-01-11T13:55:26.022Z,93.51
2017-01-11T13:56:48.507Z,93.13
2017-01-11T13:58:10.674Z,92.75
2017-01-11T13:59:33.600Z,93.04
2017-01-11T14:00:56.469Z,92.75
2017-01-11T14:02:19.334Z,92.37
2017-01-11T14:03:42.316Z,92.37
2017-01-11T14:05:04.856Z,92.56
2017-01-11T14:06:27.438Z,92.66
2017-01-11T14:07:49.911Z,91.89
2017-01-11T14:09:12.414Z,91.14
2017-01-11T14:10:34.881Z,90.76
2017-01-11T14:11:57.368Z,90.76
2017-01-11T14:13:20.006Z,90.19
2017-01-11T14:14:42.477Z,90.19
2017-01-11T14:16:04.934Z,90.09
2017-01-11T14:17:27.056Z,89.33
2017-01-11T14:18:49.137Z,87.82
2017-01-11T14:20:11.224Z,87.15
2017-01-11T14:21:34.164Z,87.91
2017-01-11T14:22:56.661Z,87.34
2017-01-11T14:24:19.167Z,86.39
2017-01-11T14:25:41.339Z,85.25
2017-01-11T14:27:04.269Z,85.01
2017-01-11T14:28:26.875Z,85.58
2017-01-11T14:29:48.969Z,86.34
2017-01-11T14:31:11.162Z,86.3
2017-01-11T14:32:33.662Z,86.53
2017-01-11T14:33:56.380Z,86.96
2017-01-11T14:35:19.385Z,86.96
2017-01-11T14:36:42.071Z,85.82
2017-01-11T14:38:04.560Z,86.2
2017-01-11T14:39:27.105Z,86.77
2017-01-11T14:40:49.819Z,86.3
2017-01-11T14:42:12.322Z,86.77
2017-01-11T14:43:34.983Z,87.15
2017-01-11T14:44:57.579Z,86.87
2017-01-11T14:46:19.236Z,87.05
2017-01-11T14:47:41.868Z,87.05
2017-01-11T14:49:03.984Z,87.24
2017-01-11T14:50:26.895Z,87.72
2017-01-11T14:51:49.431Z,88.29
2017-01-11T14:53:12.301Z,88.29
2017-01-11T14:54:34.387Z,88.39
2017-01-11T14:55:56.933Z,88.86
2017-01-11T14:57:19.413Z,88.01
2017-01-11T14:58:42.041Z,86.49
2017-01-11T15:00:04.958Z,86.2
2017-01-11T15:01:27.446Z,86.68
2017-01-11T15:02:49.958Z,86.77
2017-01-11T15:04:11.623Z,85.11
2017-01-11T15:05:34.207Z,85.63
2017-01-11T15:06:57.103Z,85.4
2017-01-11T15:08:19.233Z,85.3
2017-01-11T15:09:42.148Z,85.21
2017-01-11T15:11:04.725Z,85.11
2017-01-11T15:12:27.697Z,84.92
2017-01-11T15:13:49.764Z,85.02
2017-01-11T15:15:11.872Z,85.78
2017-01-11T15:16:35.206Z,85.11
2017-01-11T15:17:57.307Z,85.78
2017-01-11T15:19:19.970Z,85.59
2017-01-11T15:20:41.730Z,84.92
2017-01-11T15:22:04.234Z,86.07
2017-01-11T15:23:26.392Z,86.16
2017-01-11T15:24:49.471Z,86.35
2017-01-11T15:26:11.162Z,87.11
2017-01-11T15:27:33.289Z,87.77
2017-01-11T15:28:55.435Z,86.91
2017-01-11T15:30:18.312Z,87.77
2017-01-11T15:31:41.195Z,88.15
2017-01-11T15:33:03.686Z,88.96
2017-01-11T15:34:26.593Z,89.29
2017-01-11T15:35:49.357Z,89.06
2017-01-11T15:37:11.555Z,89.34
2017-01-11T15:38:34.075Z,90
2017-01-11T15:39:57.088Z,89.53
2017-01-11T15:41:19.571Z,89.15
2017-01-11T15:42:42.189Z,89.43
2017-01-11T15:44:05.085Z,89.81
2017-01-11T15:45:28.025Z,89.91
2017-01-11T15:46:50.545Z,89.81
2017-01-11T15:48:12.717Z,90.29
2017-01-11T15:49:35.643Z,90.29
2017-01-11T15:50:58.543Z,90.29
2017-01-11T15:52:21.467Z,89.81
2017-01-11T15:53:44.097Z,89.81
2017-01-11T15:55:07.050Z,89.72
2017-01-11T15:56:30.008Z,89.81
2017-01-11T15:57:52.498Z,89.48
2017-01-11T15:59:15.381Z,88.91
2017-01-11T16:00:37.865Z,88.91
2017-01-11T16:02:00.089Z,88.91
2017-01-11T16:03:22.954Z,88.91
2017-01-11T16:04:45.533Z,88.43
2017-01-11T16:06:07.723Z,88.62
2017-01-11T16:07:29.875Z,88.91
2017-01-11T16:08:52.972Z,88.53
2017-01-11T16:10:15.062Z,88.34
2017-01-11T16:11:37.164Z,89
2017-01-11T16:12:59.353Z,88.62
2017-01-11T16:14:21.921Z,89
2017-01-11T16:15:44.454Z,89.39
2017-01-11T16:17:06.934Z,89.48
2017-01-11T16:18:29.283Z,88.81
2017-01-11T16:19:51.790Z,88.81
2017-01-11T16:21:14.699Z,87.87
2017-01-11T16:22:37.276Z,87.87
2017-01-11T16:24:00.179Z,87.05
2017-01-11T16:25:23.100Z,86.58
2017-01-11T16:26:45.962Z,86.49
2017-01-11T16:28:08.585Z,85.53
2017-01-11T16:29:31.086Z,85.53
2017-01-11T16:30:54.230Z,86.25
2017-01-11T16:32:17.174Z,85.72
2017-01-11T16:33:39.680Z,85.82
2017-01-11T16:35:02.570Z,85.72
2017-01-11T16:36:25.086Z,86.2
2017-01-11T16:37:47.574Z,86.01
2017-01-11T16:39:10.469Z,85.87
2017-01-11T16:40:33.437Z,86.25
2017-01-11T16:41:55.715Z,85.49
2017-01-11T16:43:18.278Z,86.72
2017-01-11T16:44:41.153Z,87.11
2017-01-11T16:46:04.334Z,87.11
2017-01-11T16:47:27.234Z,86.16
2017-01-11T16:48:50.265Z,86.72
2017-01-11T16:50:12.368Z,87.01
2017-01-11T16:51:34.521Z,87.58
2017-01-11T16:52:57.142Z,88.24
2017-01-11T16:54:19.631Z,88.39
2017-01-11T16:55:42.249Z,88.48
2017-01-11T16:57:04.769Z,88.58
2017-01-11T16:58:27.699Z,88.96
2017-01-11T16:59:49.820Z,88.96
2017-01-11T17:01:13.018Z,88.68
2017-01-11T17:02:36.058Z,89.62
2017-01-11T17:03:59.802Z,88.58
2017-01-11T17:05:22.740Z,88.2
2017-01-11T17:06:45.263Z,87.73
2017-01-11T17:08:07.587Z,88.1
2017-01-11T17:09:30.563Z,88.39
2017-01-11T17:10:53.078Z,88.2
2017-01-11T17:12:15.928Z,87.63
2017-01-11T17:13:38.460Z,87.73
2017-01-11T17:15:01.146Z,88.39
2017-01-11T17:16:23.799Z,87.73
2017-01-11T17:17:45.927Z,88.29
2017-01-11T17:19:08.805Z,88.29
2017-01-11T17:20:31.708Z,88.48
2017-01-11T17:21:53.789Z,88.48
2017-01-11T17:23:17.244Z,87.73
2017-01-11T17:24:40.234Z,87.49
2017-01-11T17:26:02.445Z,87.2
2017-01-11T17:27:25.075Z,87.58
2017-01-11T17:28:47.916Z,86.91
2017-01-11T17:30:10.817Z,87.3
2017-01-11T17:31:33.793Z,87.63
2017-01-11T17:32:56.285Z,88.01
2017-01-11T17:34:18.988Z,87.73
2017-01-11T17:35:41.110Z,87.54
2017-01-11T17:37:04.002Z,87.68
2017-01-11T17:38:26.512Z,87.11
2017-01-11T17:39:49.013Z,87.39
2017-01-11T17:41:10.706Z,87.01
2017-01-11T17:42:32.401Z,86.44
2017-01-11T17:43:55.401Z,86.82
2017-01-11T17:45:17.609Z,86.72
2017-01-11T17:46:40.088Z,86.44